sensor_id;sensor_type;location;lat;lon;timestamp;P1;durP1;ratioP1;P2;durP2;ratioP2
59434;SDS011;45241;49.768;8.636;2023-03-17T00:01:17;6.55;;;3.65;;
59434;SDS011;45241;49.768;8.636;2023-03-17T00:03:44;6.30;;;3.80;;
59434;SDS011;45241;49.768;8.636;2023-03-17T00:06:13;6.88;;;3.55;;
59434;SDS011;45241;49.768;8.636;2023-03-17T00:08:40;4.97;;;3.40;;
59434;SDS011;45241;49.768;8.636;2023-03-17T00:11:10;7.13;;;3.83;;
59434;SDS011;45241;49.768;8.636;2023-03-17T00:13:38;6.80;;;3.55;;
59434;SDS011;45241;49.768;8.636;2023-03-17T00:16:03;6.20;;;3.55;;
59434;SDS011;45241;49.768;8.636;2023-03-17T00:18:34;7.43;;;3.25;;
59434;SDS011;45241;49.768;8.636;2023-03-17T00:21:01;6.03;;;3.22;;
59434;SDS011;45241;49.768;8.636;2023-03-17T00:23:26;4.82;;;3.08;;
59434;SDS011;45241;49.768;8.636;2023-03-17T00:25:51;5.07;;;3.20;;
59434;SDS011;45241;49.768;8.636;2023-03-17T00:28:22;5.95;;;3.00;;
59434;SDS011;45241;49.768;8.636;2023-03-17T00:30:53;4.10;;;2.90;;
59434;SDS011;45241;49.768;8.636;2023-03-17T00:33:23;4.97;;;3.13;;
59434;SDS011;45241;49.768;8.636;2023-03-17T00:35:50;5.32;;;3.13;;
59434;SDS011;45241;49.768;8.636;2023-03-17T00:38:17;8.20;;;3.38;;
59434;SDS011;45241;49.768;8.636;2023-03-17T00:40:44;6.03;;;3.15;;
59434;SDS011;45241;49.768;8.636;2023-03-17T00:43:10;4.43;;;2.80;;
59434;SDS011;45241;49.768;8.636;2023-03-17T00:45:36;5.07;;;2.88;;
59434;SDS011;45241;49.768;8.636;2023-03-17T00:48:02;4.43;;;2.80;;
59434;SDS011;45241;49.768;8.636;2023-03-17T00:50:28;7.28;;;3.05;;
59434;SDS011;45241;49.768;8.636;2023-03-17T00:52:54;4.13;;;2.67;;
59434;SDS011;45241;49.768;8.636;2023-03-17T00:55:22;5.13;;;2.90;;
59434;SDS011;45241;49.768;8.636;2023-03-17T00:57:50;4.60;;;2.67;;
59434;SDS011;45241;49.768;8.636;2023-03-17T01:00:20;4.38;;;2.35;;
59434;SDS011;45241;49.768;8.636;2023-03-17T01:02:48;4.15;;;2.25;;
59434;SDS011;45241;49.768;8.636;2023-03-17T01:05:14;4.47;;;2.58;;
59434;SDS011;45241;49.768;8.636;2023-03-17T01:07:40;4.13;;;2.40;;
59434;SDS011;45241;49.768;8.636;2023-03-17T01:10:14;4.35;;;2.20;;
59434;SDS011;45241;49.768;8.636;2023-03-17T01:12:41;3.15;;;2.53;;
59434;SDS011;45241;49.768;8.636;2023-03-17T01:15:07;5.13;;;2.50;;
59434;SDS011;45241;49.768;8.636;2023-03-17T01:17:32;5.70;;;2.33;;
59434;SDS011;45241;49.768;8.636;2023-03-17T01:19:58;4.95;;;2.60;;
59434;SDS011;45241;49.768;8.636;2023-03-17T01:22:23;6.93;;;2.80;;
59434;SDS011;45241;49.768;8.636;2023-03-17T01:24:49;5.47;;;2.58;;
59434;SDS011;45241;49.768;8.636;2023-03-17T01:27:16;4.32;;;2.38;;
59434;SDS011;45241;49.768;8.636;2023-03-17T01:29:43;3.42;;;2.00;;
59434;SDS011;45241;49.768;8.636;2023-03-17T01:32:09;4.32;;;2.50;;
59434;SDS011;45241;49.768;8.636;2023-03-17T01:34:34;4.55;;;2.58;;
59434;SDS011;45241;49.768;8.636;2023-03-17T01:36:59;4.30;;;2.35;;
59434;SDS011;45241;49.768;8.636;2023-03-17T01:39:25;5.80;;;2.80;;
59434;SDS011;45241;49.768;8.636;2023-03-17T01:41:51;4.38;;;2.17;;
59434;SDS011;45241;49.768;8.636;2023-03-17T01:44:20;5.30;;;2.30;;
59434;SDS011;45241;49.768;8.636;2023-03-17T01:46:47;5.03;;;2.90;;
59434;SDS011;45241;49.768;8.636;2023-03-17T01:49:17;3.53;;;2.20;;
59434;SDS011;45241;49.768;8.636;2023-03-17T01:51:57;4.63;;;2.30;;
59434;SDS011;45241;49.768;8.636;2023-03-17T01:57:02;5.40;;;2.67;;
59434;SDS011;45241;49.768;8.636;2023-03-17T01:59:35;4.82;;;2.20;;
59434;SDS011;45241;49.768;8.636;2023-03-17T02:02:07;2.75;;;2.20;;
59434;SDS011;45241;49.768;8.636;2023-03-17T02:04:34;3.80;;;2.20;;
59434;SDS011;45241;49.768;8.636;2023-03-17T02:07:02;3.35;;;2.35;;
59434;SDS011;45241;49.768;8.636;2023-03-17T02:09:29;3.17;;;2.28;;
59434;SDS011;45241;49.768;8.636;2023-03-17T02:11:56;4.30;;;2.33;;
59434;SDS011;45241;49.768;8.636;2023-03-17T02:14:24;5.22;;;2.53;;
59434;SDS011;45241;49.768;8.636;2023-03-17T02:16:50;4.50;;;2.30;;
59434;SDS011;45241;49.768;8.636;2023-03-17T02:19:15;5.47;;;2.58;;
59434;SDS011;45241;49.768;8.636;2023-03-17T02:21:41;3.17;;;2.22;;
59434;SDS011;45241;49.768;8.636;2023-03-17T02:27:13;4.45;;;2.30;;
59434;SDS011;45241;49.768;8.636;2023-03-17T02:29:42;4.72;;;2.38;;
59434;SDS011;45241;49.768;8.636;2023-03-17T02:32:10;5.38;;;2.85;;
59434;SDS011;45241;49.768;8.636;2023-03-17T02:34:36;3.38;;;2.10;;
59434;SDS011;45241;49.768;8.636;2023-03-17T02:37:02;5.70;;;2.40;;
59434;SDS011;45241;49.768;8.636;2023-03-17T02:39:28;4.28;;;2.30;;
59434;SDS011;45241;49.768;8.636;2023-03-17T02:41:53;4.03;;;2.38;;
59434;SDS011;45241;49.768;8.636;2023-03-17T02:44:19;3.75;;;1.90;;
59434;SDS011;45241;49.768;8.636;2023-03-17T02:46:44;3.30;;;2.00;;
59434;SDS011;45241;49.768;8.636;2023-03-17T02:49:10;4.80;;;2.00;;
59434;SDS011;45241;49.768;8.636;2023-03-17T02:51:36;3.53;;;1.90;;
59434;SDS011;45241;49.768;8.636;2023-03-17T02:54:02;5.03;;;2.03;;
59434;SDS011;45241;49.768;8.636;2023-03-17T02:56:28;4.03;;;1.95;;
59434;SDS011;45241;49.768;8.636;2023-03-17T02:58:53;3.65;;;1.95;;
59434;SDS011;45241;49.768;8.636;2023-03-17T03:01:18;4.82;;;2.10;;
59434;SDS011;45241;49.768;8.636;2023-03-17T03:03:45;5.03;;;2.30;;
59434;SDS011;45241;49.768;8.636;2023-03-17T03:06:11;4.13;;;2.15;;
59434;SDS011;45241;49.768;8.636;2023-03-17T03:08:36;3.90;;;2.25;;
59434;SDS011;45241;49.768;8.636;2023-03-17T03:11:01;3.60;;;2.10;;
59434;SDS011;45241;49.768;8.636;2023-03-17T03:13:28;2.90;;;1.98;;
59434;SDS011;45241;49.768;8.636;2023-03-17T03:15:54;2.85;;;1.95;;
59434;SDS011;45241;49.768;8.636;2023-03-17T03:18:19;3.28;;;1.95;;
59434;SDS011;45241;49.768;8.636;2023-03-17T03:20:45;2.80;;;1.70;;
59434;SDS011;45241;49.768;8.636;2023-03-17T03:23:10;2.45;;;1.50;;
59434;SDS011;45241;49.768;8.636;2023-03-17T03:25:36;3.20;;;1.92;;
59434;SDS011;45241;49.768;8.636;2023-03-17T03:28:02;2.88;;;2.00;;
59434;SDS011;45241;49.768;8.636;2023-03-17T03:30:32;4.50;;;1.92;;
59434;SDS011;45241;49.768;8.636;2023-03-17T03:32:57;4.82;;;2.08;;
59434;SDS011;45241;49.768;8.636;2023-03-17T03:35:23;5.68;;;2.60;;
59434;SDS011;45241;49.768;8.636;2023-03-17T03:37:48;3.47;;;1.98;;
59434;SDS011;45241;49.768;8.636;2023-03-17T03:40:14;3.63;;;2.08;;
59434;SDS011;45241;49.768;8.636;2023-03-17T03:42:39;2.33;;;1.65;;
59434;SDS011;45241;49.768;8.636;2023-03-17T03:45:04;3.90;;;2.00;;
59434;SDS011;45241;49.768;8.636;2023-03-17T03:47:30;2.92;;;1.77;;
59434;SDS011;45241;49.768;8.636;2023-03-17T03:49:56;4.32;;;2.13;;
59434;SDS011;45241;49.768;8.636;2023-03-17T03:52:21;2.67;;;1.85;;
59434;SDS011;45241;49.768;8.636;2023-03-17T03:54:46;5.50;;;2.20;;
59434;SDS011;45241;49.768;8.636;2023-03-17T03:57:12;3.95;;;2.10;;
59434;SDS011;45241;49.768;8.636;2023-03-17T03:59:37;3.45;;;2.03;;
59434;SDS011;45241;49.768;8.636;2023-03-17T04:02:02;3.15;;;2.05;;
59434;SDS011;45241;49.768;8.636;2023-03-17T04:04:28;3.63;;;2.10;;
59434;SDS011;45241;49.768;8.636;2023-03-17T04:06:53;4.40;;;2.03;;
59434;SDS011;45241;49.768;8.636;2023-03-17T04:09:18;3.40;;;2.10;;
59434;SDS011;45241;49.768;8.636;2023-03-17T04:11:44;4.47;;;2.20;;
59434;SDS011;45241;49.768;8.636;2023-03-17T04:14:09;3.65;;;2.00;;
59434;SDS011;45241;49.768;8.636;2023-03-17T04:16:35;3.28;;;2.00;;
59434;SDS011;45241;49.768;8.636;2023-03-17T04:19:01;3.60;;;2.20;;
59434;SDS011;45241;49.768;8.636;2023-03-17T04:21:26;3.03;;;1.98;;
59434;SDS011;45241;49.768;8.636;2023-03-17T04:23:52;2.92;;;2.00;;
59434;SDS011;45241;49.768;8.636;2023-03-17T04:26:17;3.65;;;2.78;;
59434;SDS011;45241;49.768;8.636;2023-03-17T04:28:43;3.83;;;2.45;;
59434;SDS011;45241;49.768;8.636;2023-03-17T04:31:09;3.45;;;1.90;;
59434;SDS011;45241;49.768;8.636;2023-03-17T04:33:36;2.97;;;1.92;;
59434;SDS011;45241;49.768;8.636;2023-03-17T04:36:01;2.65;;;1.83;;
59434;SDS011;45241;49.768;8.636;2023-03-17T04:38:28;3.53;;;2.10;;
59434;SDS011;45241;49.768;8.636;2023-03-17T04:40:53;4.15;;;1.83;;
59434;SDS011;45241;49.768;8.636;2023-03-17T04:43:18;2.50;;;1.85;;
59434;SDS011;45241;49.768;8.636;2023-03-17T04:45:44;3.28;;;1.92;;
59434;SDS011;45241;49.768;8.636;2023-03-17T04:48:09;3.90;;;2.00;;
59434;SDS011;45241;49.768;8.636;2023-03-17T04:50:34;2.63;;;1.88;;
59434;SDS011;45241;49.768;8.636;2023-03-17T04:53:00;2.75;;;2.00;;
59434;SDS011;45241;49.768;8.636;2023-03-17T04:55:26;2.25;;;1.90;;
59434;SDS011;45241;49.768;8.636;2023-03-17T04:57:52;2.80;;;2.13;;
59434;SDS011;45241;49.768;8.636;2023-03-17T05:00:17;3.58;;;1.90;;
59434;SDS011;45241;49.768;8.636;2023-03-17T05:02:43;3.35;;;2.20;;
59434;SDS011;45241;49.768;8.636;2023-03-17T05:05:08;2.92;;;2.10;;
59434;SDS011;45241;49.768;8.636;2023-03-17T05:07:34;4.15;;;2.15;;
59434;SDS011;45241;49.768;8.636;2023-03-17T05:09:59;2.28;;;1.90;;
59434;SDS011;45241;49.768;8.636;2023-03-17T05:12:26;3.25;;;2.17;;
59434;SDS011;45241;49.768;8.636;2023-03-17T05:14:51;3.47;;;2.30;;
59434;SDS011;45241;49.768;8.636;2023-03-17T05:17:17;3.28;;;2.03;;
59434;SDS011;45241;49.768;8.636;2023-03-17T05:19:42;3.35;;;2.03;;
59434;SDS011;45241;49.768;8.636;2023-03-17T05:22:07;4.47;;;1.90;;
59434;SDS011;45241;49.768;8.636;2023-03-17T05:24:33;4.55;;;2.35;;
59434;SDS011;45241;49.768;8.636;2023-03-17T05:26:58;3.63;;;2.13;;
59434;SDS011;45241;49.768;8.636;2023-03-17T05:29:23;4.35;;;2.08;;
59434;SDS011;45241;49.768;8.636;2023-03-17T05:31:48;3.28;;;2.28;;
59434;SDS011;45241;49.768;8.636;2023-03-17T05:34:14;7.22;;;2.00;;
59434;SDS011;45241;49.768;8.636;2023-03-17T05:36:39;3.17;;;1.90;;
59434;SDS011;45241;49.768;8.636;2023-03-17T05:39:05;3.30;;;2.00;;
59434;SDS011;45241;49.768;8.636;2023-03-17T05:41:31;3.22;;;2.10;;
59434;SDS011;45241;49.768;8.636;2023-03-17T05:43:57;2.80;;;2.20;;
59434;SDS011;45241;49.768;8.636;2023-03-17T05:46:23;4.63;;;2.60;;
59434;SDS011;45241;49.768;8.636;2023-03-17T05:48:48;4.40;;;2.67;;
59434;SDS011;45241;49.768;8.636;2023-03-17T05:51:14;3.50;;;2.42;;
59434;SDS011;45241;49.768;8.636;2023-03-17T05:53:39;4.75;;;2.45;;
59434;SDS011;45241;49.768;8.636;2023-03-17T05:56:06;3.22;;;2.30;;
59434;SDS011;45241;49.768;8.636;2023-03-17T05:58:31;4.78;;;2.50;;
59434;SDS011;45241;49.768;8.636;2023-03-17T06:00:57;4.32;;;2.60;;
59434;SDS011;45241;49.768;8.636;2023-03-17T06:03:22;5.03;;;2.78;;
59434;SDS011;45241;49.768;8.636;2023-03-17T06:05:47;5.47;;;2.80;;
59434;SDS011;45241;49.768;8.636;2023-03-17T06:08:13;4.78;;;2.20;;
59434;SDS011;45241;49.768;8.636;2023-03-17T06:10:38;3.13;;;2.28;;
59434;SDS011;45241;49.768;8.636;2023-03-17T06:13:05;5.13;;;2.65;;
59434;SDS011;45241;49.768;8.636;2023-03-17T06:15:30;5.40;;;2.45;;
59434;SDS011;45241;49.768;8.636;2023-03-17T06:17:57;5.82;;;2.90;;
59434;SDS011;45241;49.768;8.636;2023-03-17T06:20:23;4.28;;;2.78;;
59434;SDS011;45241;49.768;8.636;2023-03-17T06:22:49;5.72;;;2.60;;
59434;SDS011;45241;49.768;8.636;2023-03-17T06:25:14;3.28;;;2.60;;
59434;SDS011;45241;49.768;8.636;2023-03-17T06:27:40;3.67;;;2.60;;
59434;SDS011;45241;49.768;8.636;2023-03-17T06:30:07;4.20;;;2.90;;
59434;SDS011;45241;49.768;8.636;2023-03-17T06:32:34;6.97;;;2.78;;
59434;SDS011;45241;49.768;8.636;2023-03-17T06:35:00;5.60;;;2.30;;
59434;SDS011;45241;49.768;8.636;2023-03-17T06:37:26;3.85;;;2.65;;
59434;SDS011;45241;49.768;8.636;2023-03-17T06:39:51;4.22;;;2.47;;
59434;SDS011;45241;49.768;8.636;2023-03-17T06:42:17;4.88;;;2.40;;
59434;SDS011;45241;49.768;8.636;2023-03-17T06:44:43;3.15;;;2.47;;
59434;SDS011;45241;49.768;8.636;2023-03-17T06:47:08;5.50;;;2.67;;
59434;SDS011;45241;49.768;8.636;2023-03-17T06:49:33;4.18;;;3.00;;
59434;SDS011;45241;49.768;8.636;2023-03-17T06:51:59;4.13;;;3.10;;
59434;SDS011;45241;49.768;8.636;2023-03-17T06:54:24;3.38;;;2.65;;
59434;SDS011;45241;49.768;8.636;2023-03-17T06:56:51;4.45;;;2.83;;
59434;SDS011;45241;49.768;8.636;2023-03-17T06:59:17;3.55;;;2.60;;
59434;SDS011;45241;49.768;8.636;2023-03-17T07:01:43;3.38;;;2.78;;
59434;SDS011;45241;49.768;8.636;2023-03-17T07:04:09;4.20;;;2.40;;
59434;SDS011;45241;49.768;8.636;2023-03-17T07:06:34;4.35;;;2.65;;
59434;SDS011;45241;49.768;8.636;2023-03-17T07:09:00;3.28;;;2.67;;
59434;SDS011;45241;49.768;8.636;2023-03-17T07:11:26;3.63;;;2.55;;
59434;SDS011;45241;49.768;8.636;2023-03-17T07:13:53;5.70;;;2.95;;
59434;SDS011;45241;49.768;8.636;2023-03-17T07:16:18;3.25;;;2.35;;
59434;SDS011;45241;49.768;8.636;2023-03-17T07:18:45;3.25;;;2.38;;
59434;SDS011;45241;49.768;8.636;2023-03-17T07:21:11;4.30;;;2.88;;
59434;SDS011;45241;49.768;8.636;2023-03-17T07:23:36;5.30;;;2.90;;
59434;SDS011;45241;49.768;8.636;2023-03-17T07:26:02;6.25;;;3.50;;
59434;SDS011;45241;49.768;8.636;2023-03-17T07:28:27;4.85;;;3.15;;
59434;SDS011;45241;49.768;8.636;2023-03-17T07:30:53;9.02;;;4.28;;
59434;SDS011;45241;49.768;8.636;2023-03-17T07:33:20;8.27;;;4.22;;
59434;SDS011;45241;49.768;8.636;2023-03-17T07:35:45;7.65;;;4.22;;
59434;SDS011;45241;49.768;8.636;2023-03-17T07:38:14;7.15;;;4.43;;
59434;SDS011;45241;49.768;8.636;2023-03-17T07:40:41;7.32;;;4.50;;
59434;SDS011;45241;49.768;8.636;2023-03-17T07:43:07;6.60;;;4.50;;
59434;SDS011;45241;49.768;8.636;2023-03-17T07:45:32;9.38;;;4.55;;
59434;SDS011;45241;49.768;8.636;2023-03-17T07:47:59;6.05;;;3.85;;
59434;SDS011;45241;49.768;8.636;2023-03-17T07:50:25;7.63;;;3.63;;
59434;SDS011;45241;49.768;8.636;2023-03-17T07:52:50;6.30;;;3.50;;
59434;SDS011;45241;49.768;8.636;2023-03-17T07:55:16;5.78;;;3.90;;
59434;SDS011;45241;49.768;8.636;2023-03-17T07:57:41;7.32;;;4.40;;
59434;SDS011;45241;49.768;8.636;2023-03-17T08:00:07;6.70;;;3.95;;
59434;SDS011;45241;49.768;8.636;2023-03-17T08:02:34;7.82;;;4.45;;
59434;SDS011;45241;49.768;8.636;2023-03-17T08:05:00;7.68;;;4.30;;
59434;SDS011;45241;49.768;8.636;2023-03-17T08:07:27;6.82;;;4.18;;
59434;SDS011;45241;49.768;8.636;2023-03-17T08:09:52;8.32;;;4.57;;
59434;SDS011;45241;49.768;8.636;2023-03-17T08:12:17;7.85;;;4.85;;
59434;SDS011;45241;49.768;8.636;2023-03-17T08:14:44;7.18;;;4.20;;
59434;SDS011;45241;49.768;8.636;2023-03-17T08:17:09;7.68;;;4.47;;
59434;SDS011;45241;49.768;8.636;2023-03-17T08:19:35;10.85;;;4.15;;
59434;SDS011;45241;49.768;8.636;2023-03-17T08:22:01;8.35;;;4.70;;
59434;SDS011;45241;49.768;8.636;2023-03-17T08:24:26;8.15;;;4.90;;
59434;SDS011;45241;49.768;8.636;2023-03-17T08:26:51;8.00;;;5.78;;
59434;SDS011;45241;49.768;8.636;2023-03-17T08:29:17;7.78;;;5.47;;
59434;SDS011;45241;49.768;8.636;2023-03-17T08:31:43;9.52;;;5.82;;
59434;SDS011;45241;49.768;8.636;2023-03-17T08:34:08;9.70;;;5.10;;
59434;SDS011;45241;49.768;8.636;2023-03-17T08:36:34;11.57;;;5.90;;
59434;SDS011;45241;49.768;8.636;2023-03-17T08:39:00;9.18;;;5.70;;
59434;SDS011;45241;49.768;8.636;2023-03-17T08:41:26;8.13;;;5.15;;
59434;SDS011;45241;49.768;8.636;2023-03-17T08:43:52;8.07;;;5.13;;
59434;SDS011;45241;49.768;8.636;2023-03-17T08:46:22;10.15;;;5.53;;
59434;SDS011;45241;49.768;8.636;2023-03-17T08:48:50;7.93;;;5.28;;
59434;SDS011;45241;49.768;8.636;2023-03-17T08:51:17;6.70;;;5.40;;
59434;SDS011;45241;49.768;8.636;2023-03-17T08:53:43;8.70;;;5.75;;
59434;SDS011;45241;49.768;8.636;2023-03-17T08:56:09;7.38;;;5.20;;
59434;SDS011;45241;49.768;8.636;2023-03-17T08:58:35;8.55;;;5.50;;
59434;SDS011;45241;49.768;8.636;2023-03-17T09:01:04;8.98;;;6.18;;
59434;SDS011;45241;49.768;8.636;2023-03-17T09:03:31;10.20;;;5.25;;
59434;SDS011;45241;49.768;8.636;2023-03-17T09:05:57;8.02;;;5.25;;
59434;SDS011;45241;49.768;8.636;2023-03-17T09:08:23;11.70;;;6.43;;
59434;SDS011;45241;49.768;8.636;2023-03-17T09:10:50;8.00;;;5.70;;
59434;SDS011;45241;49.768;8.636;2023-03-17T09:13:17;7.88;;;5.93;;
59434;SDS011;45241;49.768;8.636;2023-03-17T09:15:43;9.35;;;5.13;;
59434;SDS011;45241;49.768;8.636;2023-03-17T09:18:08;8.18;;;5.55;;
59434;SDS011;45241;49.768;8.636;2023-03-17T09:20:34;7.95;;;4.90;;
59434;SDS011;45241;49.768;8.636;2023-03-17T09:23:03;9.00;;;5.43;;
59434;SDS011;45241;49.768;8.636;2023-03-17T09:27:55;8.95;;;5.32;;
59434;SDS011;45241;49.768;8.636;2023-03-17T09:30:21;6.90;;;5.38;;
59434;SDS011;45241;49.768;8.636;2023-03-17T09:32:46;8.32;;;5.75;;
59434;SDS011;45241;49.768;8.636;2023-03-17T09:35:13;11.57;;;5.93;;
59434;SDS011;45241;49.768;8.636;2023-03-17T09:37:38;8.05;;;5.82;;
59434;SDS011;45241;49.768;8.636;2023-03-17T09:40:04;10.48;;;6.05;;
59434;SDS011;45241;49.768;8.636;2023-03-17T09:50:26;8.65;;;6.28;;
59434;SDS011;45241;49.768;8.636;2023-03-17T09:52:56;6.85;;;5.45;;
59434;SDS011;45241;49.768;8.636;2023-03-17T09:55:31;9.13;;;6.00;;
59434;SDS011;45241;49.768;8.636;2023-03-17T09:57:59;11.65;;;6.20;;
59434;SDS011;45241;49.768;8.636;2023-03-17T10:00:27;8.88;;;5.68;;
59434;SDS011;45241;49.768;8.636;2023-03-17T10:02:55;9.02;;;5.70;;
59434;SDS011;45241;49.768;8.636;2023-03-17T10:05:26;9.35;;;6.15;;
59434;SDS011;45241;49.768;8.636;2023-03-17T10:08:13;8.85;;;6.80;;
59434;SDS011;45241;49.768;8.636;2023-03-17T10:10:54;12.18;;;6.03;;
59434;SDS011;45241;49.768;8.636;2023-03-17T10:13:46;8.32;;;5.20;;
59434;SDS011;45241;49.768;8.636;2023-03-17T10:16:13;8.65;;;5.78;;
59434;SDS011;45241;49.768;8.636;2023-03-17T10:18:48;9.02;;;5.30;;
59434;SDS011;45241;49.768;8.636;2023-03-17T10:21:31;9.88;;;5.75;;
59434;SDS011;45241;49.768;8.636;2023-03-17T10:23:59;9.15;;;5.00;;
59434;SDS011;45241;49.768;8.636;2023-03-17T10:26:30;9.73;;;5.65;;
59434;SDS011;45241;49.768;8.636;2023-03-17T10:29:03;8.88;;;5.40;;
59434;SDS011;45241;49.768;8.636;2023-03-17T10:31:36;7.65;;;4.97;;
59434;SDS011;45241;49.768;8.636;2023-03-17T10:34:13;9.05;;;6.20;;
59434;SDS011;45241;49.768;8.636;2023-03-17T10:36:41;8.68;;;5.85;;
59434;SDS011;45241;49.768;8.636;2023-03-17T10:39:13;11.00;;;5.90;;
59434;SDS011;45241;49.768;8.636;2023-03-17T10:41:51;10.30;;;5.88;;
59434;SDS011;45241;49.768;8.636;2023-03-17T10:47:28;8.27;;;5.57;;
59434;SDS011;45241;49.768;8.636;2023-03-17T10:49:55;7.72;;;5.40;;
59434;SDS011;45241;49.768;8.636;2023-03-17T10:52:24;8.73;;;5.18;;
59434;SDS011;45241;49.768;8.636;2023-03-17T10:54:51;7.28;;;4.82;;
59434;SDS011;45241;49.768;8.636;2023-03-17T10:57:18;8.40;;;5.10;;
59434;SDS011;45241;49.768;8.636;2023-03-17T10:59:51;6.68;;;4.93;;
59434;SDS011;45241;49.768;8.636;2023-03-17T11:02:20;8.38;;;5.20;;
59434;SDS011;45241;49.768;8.636;2023-03-17T11:04:52;7.45;;;4.80;;
59434;SDS011;45241;49.768;8.636;2023-03-17T11:07:20;7.78;;;5.10;;
59434;SDS011;45241;49.768;8.636;2023-03-17T11:09:59;6.43;;;4.90;;
59434;SDS011;45241;49.768;8.636;2023-03-17T11:12:38;8.15;;;4.60;;
59434;SDS011;45241;49.768;8.636;2023-03-17T11:15:06;7.65;;;5.00;;
59434;SDS011;45241;49.768;8.636;2023-03-17T11:29:01;7.88;;;5.20;;
59434;SDS011;45241;49.768;8.636;2023-03-17T11:35:06;8.73;;;4.78;;
59434;SDS011;45241;49.768;8.636;2023-03-17T11:38:03;7.63;;;4.40;;
59434;SDS011;45241;49.768;8.636;2023-03-17T11:46:01;7.25;;;4.20;;
59434;SDS011;45241;49.768;8.636;2023-03-17T11:48:36;8.13;;;4.60;;
59434;SDS011;45241;49.768;8.636;2023-03-17T11:54:08;6.53;;;4.18;;
59434;SDS011;45241;49.768;8.636;2023-03-17T11:56:46;7.78;;;4.18;;
59434;SDS011;45241;49.768;8.636;2023-03-17T12:02:15;7.80;;;3.72;;
59434;SDS011;45241;49.768;8.636;2023-03-17T12:04:53;7.57;;;4.15;;
59434;SDS011;45241;49.768;8.636;2023-03-17T12:07:23;6.22;;;3.58;;
59434;SDS011;45241;49.768;8.636;2023-03-17T12:12:29;6.13;;;3.50;;
59434;SDS011;45241;49.768;8.636;2023-03-17T12:15:00;8.52;;;3.67;;
59434;SDS011;45241;49.768;8.636;2023-03-17T12:17:46;5.72;;;3.33;;
59434;SDS011;45241;49.768;8.636;2023-03-17T12:22:53;5.10;;;3.05;;
59434;SDS011;45241;49.768;8.636;2023-03-17T12:25:26;5.28;;;3.15;;
59434;SDS011;45241;49.768;8.636;2023-03-17T12:28:04;6.93;;;3.17;;
59434;SDS011;45241;49.768;8.636;2023-03-17T12:33:39;8.02;;;3.60;;
59434;SDS011;45241;49.768;8.636;2023-03-17T12:36:12;8.18;;;3.47;;
59434;SDS011;45241;49.768;8.636;2023-03-17T12:41:41;5.35;;;3.20;;
59434;SDS011;45241;49.768;8.636;2023-03-17T12:49:50;5.55;;;2.60;;
59434;SDS011;45241;49.768;8.636;2023-03-17T12:57:40;6.82;;;2.40;;
59434;SDS011;45241;49.768;8.636;2023-03-17T13:00:16;4.93;;;2.40;;
59434;SDS011;45241;49.768;8.636;2023-03-17T13:05:15;4.45;;;2.45;;
59434;SDS011;45241;49.768;8.636;2023-03-17T13:07:52;3.70;;;1.92;;
59434;SDS011;45241;49.768;8.636;2023-03-17T13:13:10;4.90;;;2.20;;
59434;SDS011;45241;49.768;8.636;2023-03-17T13:15:55;5.10;;;2.20;;
59434;SDS011;45241;49.768;8.636;2023-03-17T13:18:44;4.57;;;2.30;;
59434;SDS011;45241;49.768;8.636;2023-03-17T13:21:11;4.32;;;2.10;;
59434;SDS011;45241;49.768;8.636;2023-03-17T13:32:28;3.45;;;2.03;;
59434;SDS011;45241;49.768;8.636;2023-03-17T13:37:25;2.95;;;1.77;;
59434;SDS011;45241;49.768;8.636;2023-03-17T13:45:40;2.55;;;1.50;;
59434;SDS011;45241;49.768;8.636;2023-03-17T13:50:58;3.00;;;1.58;;
59434;SDS011;45241;49.768;8.636;2023-03-17T13:53:27;2.92;;;1.42;;
59434;SDS011;45241;49.768;8.636;2023-03-17T13:56:03;3.33;;;1.52;;
59434;SDS011;45241;49.768;8.636;2023-03-17T13:58:34;2.72;;;1.85;;
59434;SDS011;45241;49.768;8.636;2023-03-17T14:01:12;3.25;;;1.58;;
59434;SDS011;45241;49.768;8.636;2023-03-17T14:03:40;3.20;;;1.48;;
59434;SDS011;45241;49.768;8.636;2023-03-17T14:06:11;2.97;;;1.40;;
59434;SDS011;45241;49.768;8.636;2023-03-17T14:08:42;3.85;;;1.50;;
59434;SDS011;45241;49.768;8.636;2023-03-17T14:11:16;3.33;;;1.67;;
59434;SDS011;45241;49.768;8.636;2023-03-17T14:16:51;5.22;;;1.40;;
59434;SDS011;45241;49.768;8.636;2023-03-17T14:19:23;3.97;;;1.50;;
59434;SDS011;45241;49.768;8.636;2023-03-17T14:21:51;2.63;;;1.55;;
59434;SDS011;45241;49.768;8.636;2023-03-17T14:24:19;3.05;;;1.30;;
59434;SDS011;45241;49.768;8.636;2023-03-17T14:26:49;1.98;;;1.20;;
59434;SDS011;45241;49.768;8.636;2023-03-17T14:29:16;2.25;;;1.33;;
59434;SDS011;45241;49.768;8.636;2023-03-17T14:31:46;3.03;;;1.50;;
59434;SDS011;45241;49.768;8.636;2023-03-17T14:34:13;2.10;;;1.40;;
59434;SDS011;45241;49.768;8.636;2023-03-17T14:36:40;2.85;;;1.50;;
59434;SDS011;45241;49.768;8.636;2023-03-17T14:39:05;4.57;;;1.23;;
59434;SDS011;45241;49.768;8.636;2023-03-17T14:41:32;1.70;;;1.02;;
59434;SDS011;45241;49.768;8.636;2023-03-17T14:43:58;1.10;;;0.90;;
59434;SDS011;45241;49.768;8.636;2023-03-17T14:46:25;2.05;;;1.02;;
59434;SDS011;45241;49.768;8.636;2023-03-17T14:54:00;1.85;;;1.13;;
59434;SDS011;45241;49.768;8.636;2023-03-17T14:56:36;1.42;;;1.00;;
59434;SDS011;45241;49.768;8.636;2023-03-17T14:59:05;2.85;;;1.15;;
59434;SDS011;45241;49.768;8.636;2023-03-17T15:01:43;1.77;;;1.10;;
59434;SDS011;45241;49.768;8.636;2023-03-17T15:04:14;1.80;;;1.10;;
59434;SDS011;45241;49.768;8.636;2023-03-17T15:09:17;1.95;;;1.20;;
59434;SDS011;45241;49.768;8.636;2023-03-17T15:11:53;1.60;;;0.90;;
59434;SDS011;45241;49.768;8.636;2023-03-17T15:14:27;3.08;;;1.00;;
59434;SDS011;45241;49.768;8.636;2023-03-17T15:16:56;2.03;;;1.40;;
59434;SDS011;45241;49.768;8.636;2023-03-17T15:19:56;2.88;;;1.30;;
59434;SDS011;45241;49.768;8.636;2023-03-17T15:22:38;1.52;;;1.10;;
59434;SDS011;45241;49.768;8.636;2023-03-17T15:25:24;2.58;;;0.90;;
59434;SDS011;45241;49.768;8.636;2023-03-17T15:27:56;2.72;;;1.45;;
59434;SDS011;45241;49.768;8.636;2023-03-17T15:30:22;1.42;;;0.90;;
59434;SDS011;45241;49.768;8.636;2023-03-17T15:33:31;2.28;;;0.90;;
59434;SDS011;45241;49.768;8.636;2023-03-17T15:35:56;1.65;;;1.00;;
59434;SDS011;45241;49.768;8.636;2023-03-17T15:38:24;2.90;;;1.48;;
59434;SDS011;45241;49.768;8.636;2023-03-17T15:40:50;2.60;;;1.30;;
59434;SDS011;45241;49.768;8.636;2023-03-17T15:43:16;5.50;;;1.40;;
59434;SDS011;45241;49.768;8.636;2023-03-17T15:45:43;5.15;;;1.58;;
59434;SDS011;45241;49.768;8.636;2023-03-17T15:48:16;3.00;;;1.60;;
59434;SDS011;45241;49.768;8.636;2023-03-17T15:50:47;2.63;;;1.42;;
59434;SDS011;45241;49.768;8.636;2023-03-17T15:53:15;3.47;;;1.85;;
59434;SDS011;45241;49.768;8.636;2023-03-17T15:55:40;3.00;;;1.83;;
59434;SDS011;45241;49.768;8.636;2023-03-17T15:58:05;3.95;;;2.08;;
59434;SDS011;45241;49.768;8.636;2023-03-17T16:00:31;4.85;;;2.05;;
59434;SDS011;45241;49.768;8.636;2023-03-17T16:03:03;6.22;;;1.90;;
59434;SDS011;45241;49.768;8.636;2023-03-17T16:08:03;3.38;;;2.30;;
59434;SDS011;45241;49.768;8.636;2023-03-17T16:10:29;6.45;;;2.65;;
59434;SDS011;45241;49.768;8.636;2023-03-17T16:12:55;5.20;;;3.22;;
59434;SDS011;45241;49.768;8.636;2023-03-17T16:15:25;3.78;;;2.33;;
59434;SDS011;45241;49.768;8.636;2023-03-17T16:17:59;4.30;;;2.65;;
59434;SDS011;45241;49.768;8.636;2023-03-17T16:20:30;7.20;;;2.70;;
59434;SDS011;45241;49.768;8.636;2023-03-17T16:23:08;5.70;;;2.60;;
59434;SDS011;45241;49.768;8.636;2023-03-17T16:25:39;9.30;;;2.83;;
59434;SDS011;45241;49.768;8.636;2023-03-17T16:28:18;6.60;;;2.83;;
59434;SDS011;45241;49.768;8.636;2023-03-17T16:30:46;4.60;;;2.90;;
59434;SDS011;45241;49.768;8.636;2023-03-17T16:33:14;5.05;;;2.58;;
59434;SDS011;45241;49.768;8.636;2023-03-17T16:35:45;7.93;;;2.83;;
59434;SDS011;45241;49.768;8.636;2023-03-17T16:38:16;6.53;;;3.03;;
59434;SDS011;45241;49.768;8.636;2023-03-17T16:40:45;4.03;;;2.40;;